Time;durP1;ratioP1;P1;durP2;ratioP2;P2;SDS_P1;SDS_P2;PMS_P1;PMS_P2;Temp;Humidity;BMP_temperature;BMP_pressure;BME280_temperature;BME280_humidity;BME280_pressure;Samples;Min_cycle;Max_cycle;Signal;HPM_P1;HPM_P2
2022/06/20 00:01:21;;;;;;;7.05;2.92;;;;;;;;;;5037052;28;20092;-94
2022/06/20 00:03:48;;;;;;;8.25;3.10;;;;;;;;;;5036330;28;20059;-93
2022/06/20 00:06:17;;;;;;;5.43;2.90;;;;;;;;;;5034630;28;20049;-93
2022/06/20 00:08:45;;;;;;;11.80;3.15;;;;;;;;;;5039675;28;20105;-91
2022/06/20 00:11:16;;;;;;;6.22;2.58;;;;;;;;;;5037896;28;20142;-93
2022/06/20 00:13:45;;;;;;;10.48;2.97;;;;;;;;;;5035867;28;20104;-94
2022/06/20 00:16:13;;;;;;;5.63;2.60;;;;;;;;;;5035184;28;20420;-94
2022/06/20 00:18:40;;;;;;;8.18;2.88;;;;;;;;;;5033688;28;20378;-94
2022/06/20 00:21:11;;;;;;;9.05;3.10;;;;;;;;;;5032292;28;20457;-93
2022/06/20 00:23:38;;;;;;;8.43;2.83;;;;;;;;;;5032887;28;20451;-94
2022/06/20 00:26:06;;;;;;;6.82;2.60;;;;;;;;;;5033473;28;20466;-95
2022/06/20 00:28:33;;;;;;;7.63;2.50;;;;;;;;;;5037649;28;20546;-95
2022/06/20 00:31:00;;;;;;;7.43;2.00;;;;;;;;;;5032252;28;20049;-95
2022/06/20 00:33:28;;;;;;;10.18;2.90;;;;;;;;;;5038413;28;20132;-95
2022/06/20 00:35:55;;;;;;;8.48;3.13;;;;;;;;;;5035050;28;20080;-94
2022/06/20 00:38:23;;;;;;;6.63;2.65;;;;;;;;;;5032531;28;20132;-94
2022/06/20 00:40:56;;;;;;;5.25;2.45;;;;;;;;;;5032776;28;20490;-94
2022/06/20 00:43:31;;;;;;;7.22;3.08;;;;;;;;;;5018483;28;20025;-95
2022/06/20 00:45:59;;;;;;;6.95;2.40;;;;;;;;;;5027024;28;20557;-95
2022/06/20 00:48:28;;;;;;;10.43;3.38;;;;;;;;;;5033148;28;20050;-96
2022/06/20 00:50:57;;;;;;;12.45;3.03;;;;;;;;;;5032265;28;20453;-94
2022/06/20 00:53:30;;;;;;;5.82;3.03;;;;;;;;;;5034169;28;20049;-94
2022/06/20 00:56:00;;;;;;;5.20;2.40;;;;;;;;;;5034327;28;20072;-95
2022/06/20 00:58:27;;;;;;;8.45;2.63;;;;;;;;;;5036763;28;20080;-95
2022/06/20 01:00:54;;;;;;;7.38;2.38;;;;;;;;;;5035566;28;20137;-94
2022/06/20 01:03:23;;;;;;;9.57;3.30;;;;;;;;;;5018376;28;20049;-95
2022/06/20 01:05:57;;;;;;;8.32;2.63;;;;;;;;;;5022341;28;20046;-93
2022/06/20 01:08:26;;;;;;;7.78;2.85;;;;;;;;;;5036511;28;20141;-94
2022/06/20 01:10:59;;;;;;;8.38;3.10;;;;;;;;;;5036201;28;20099;-94
2022/06/20 01:13:27;;;;;;;6.65;2.95;;;;;;;;;;5033353;28;20049;-96
2022/06/20 01:15:58;;;;;;;8.20;2.90;;;;;;;;;;5036249;28;20481;-94
2022/06/20 01:18:30;;;;;;;9.95;3.22;;;;;;;;;;5036370;28;20124;-95
2022/06/20 01:20:58;;;;;;;7.85;3.13;;;;;;;;;;5035677;28;20565;-93
2022/06/20 01:23:37;;;;;;;12.30;3.60;;;;;;;;;;5038589;28;20075;-95
2022/06/20 01:26:12;;;;;;;9.77;2.90;;;;;;;;;;5043186;28;20136;-95
2022/06/20 01:28:41;;;;;;;7.13;2.78;;;;;;;;;;5048641;28;20049;-94
2022/06/20 01:31:09;;;;;;;8.15;2.78;;;;;;;;;;5036955;28;20472;-94
2022/06/20 01:33:37;;;;;;;9.05;2.83;;;;;;;;;;5038407;28;20056;-95
2022/06/20 01:39:00;;;;;;;8.70;2.70;;;;;;;;;;5026208;28;20046;-95
2022/06/20 01:44:17;;;;;;;10.93;3.58;;;;;;;;;;5038554;28;20144;-95
2022/06/20 01:46:47;;;;;;;5.90;2.92;;;;;;;;;;5034421;28;20103;-95
2022/06/20 01:49:16;;;;;;;12.05;3.03;;;;;;;;;;5036738;28;20066;-96
2022/06/20 01:52:20;;;;;;;10.98;3.20;;;;;;;;;;5045500;28;20049;-96
2022/06/20 01:54:53;;;;;;;9.63;3.20;;;;;;;;;;5011062;28;20049;-96
2022/06/20 01:57:21;;;;;;;6.85;3.05;;;;;;;;;;5017129;28;20080;-95
2022/06/20 02:00:14;;;;;;;14.57;3.20;;;;;;;;;;5031968;28;20505;-93
2022/06/20 02:02:57;;;;;;;14.40;3.42;;;;;;;;;;5054711;28;20552;-94
2022/06/20 02:05:27;;;;;;;9.57;3.58;;;;;;;;;;5046782;28;20056;-94
2022/06/20 02:07:54;;;;;;;7.85;2.83;;;;;;;;;;5039718;28;20148;-95
2022/06/20 02:10:29;;;;;;;13.98;3.83;;;;;;;;;;5042314;28;20045;-96
2022/06/20 02:12:58;;;;;;;8.55;3.20;;;;;;;;;;5044465;28;20080;-94
2022/06/20 02:15:26;;;;;;;8.40;3.40;;;;;;;;;;5038615;28;20109;-94
2022/06/20 02:17:53;;;;;;;7.53;3.15;;;;;;;;;;5040714;28;20265;-94
2022/06/20 02:20:24;;;;;;;9.52;3.60;;;;;;;;;;5042979;28;20470;-95
2022/06/20 02:22:52;;;;;;;9.20;3.13;;;;;;;;;;5037240;28;20080;-95
2022/06/20 02:25:22;;;;;;;10.95;3.80;;;;;;;;;;5038540;28;20071;-95
2022/06/20 02:27:51;;;;;;;8.77;3.33;;;;;;;;;;5040696;28;20076;-95
2022/06/20 02:30:19;;;;;;;6.35;2.60;;;;;;;;;;5037992;28;20059;-95
2022/06/20 02:32:54;;;;;;;7.07;3.33;;;;;;;;;;5037666;28;20569;-94
2022/06/20 02:35:22;;;;;;;9.15;3.15;;;;;;;;;;5039741;28;20508;-95
2022/06/20 02:37:49;;;;;;;10.10;3.28;;;;;;;;;;5038632;28;20143;-95
2022/06/20 02:40:18;;;;;;;8.77;3.38;;;;;;;;;;5037680;28;20061;-94
2022/06/20 02:42:45;;;;;;;8.27;3.10;;;;;;;;;;5037356;28;20045;-94
2022/06/20 02:45:13;;;;;;;9.77;3.13;;;;;;;;;;5037680;28;20144;-95
2022/06/20 02:47:42;;;;;;;7.80;3.10;;;;;;;;;;5037510;28;20113;-95
2022/06/20 02:50:11;;;;;;;6.90;3.22;;;;;;;;;;5040174;28;20092;-96
2022/06/20 02:52:43;;;;;;;10.38;3.58;;;;;;;;;;5042784;28;20079;-94
2022/06/20 02:55:11;;;;;;;10.38;3.50;;;;;;;;;;5037954;28;20137;-94
2022/06/20 02:57:42;;;;;;;7.90;3.40;;;;;;;;;;5019185;28;20053;-95
2022/06/20 03:00:14;;;;;;;12.70;3.75;;;;;;;;;;5038069;28;20140;-94
2022/06/20 03:02:44;;;;;;;8.55;3.35;;;;;;;;;;5041550;28;20109;-95
2022/06/20 03:05:12;;;;;;;9.68;3.35;;;;;;;;;;5048776;28;20049;-95
2022/06/20 03:07:41;;;;;;;9.40;3.40;;;;;;;;;;5037674;28;20048;-95
2022/06/20 03:10:17;;;;;;;11.02;3.80;;;;;;;;;;5039944;28;20548;-95
2022/06/20 03:12:45;;;;;;;10.60;3.65;;;;;;;;;;5038796;28;20095;-96
2022/06/20 03:15:12;;;;;;;7.43;3.20;;;;;;;;;;5037944;28;20132;-95
2022/06/20 03:17:41;;;;;;;9.05;3.20;;;;;;;;;;5038631;28;20135;-95
2022/06/20 03:20:11;;;;;;;10.35;3.10;;;;;;;;;;5047845;28;20493;-95
2022/06/20 03:22:46;;;;;;;13.95;3.20;;;;;;;;;;5047130;28;20048;-96
2022/06/20 03:25:14;;;;;;;8.43;3.00;;;;;;;;;;5046884;28;20102;-95
2022/06/20 03:27:42;;;;;;;8.55;3.80;;;;;;;;;;5038053;28;20099;-95
2022/06/20 03:30:31;;;;;;;7.47;3.10;;;;;;;;;;5037120;28;20132;-96
2022/06/20 03:32:59;;;;;;;5.30;2.83;;;;;;;;;;5037031;28;20071;-95
2022/06/20 03:35:30;;;;;;;9.55;3.47;;;;;;;;;;5036885;28;20041;-95
2022/06/20 03:37:58;;;;;;;6.40;2.80;;;;;;;;;;5017640;28;20049;-94
2022/06/20 03:40:26;;;;;;;9.27;3.15;;;;;;;;;;5022739;28;20466;-96
2022/06/20 03:42:53;;;;;;;10.35;3.63;;;;;;;;;;5036832;28;20045;-95
2022/06/20 03:45:22;;;;;;;10.95;3.72;;;;;;;;;;5041194;28;20085;-94
2022/06/20 03:47:55;;;;;;;12.27;4.00;;;;;;;;;;5048521;28;20065;-96
2022/06/20 03:50:28;;;;;;;10.57;3.50;;;;;;;;;;5025908;28;20053;-95
2022/06/20 03:53:01;;;;;;;11.60;3.63;;;;;;;;;;5038369;28;20124;-94
2022/06/20 03:55:31;;;;;;;13.85;3.72;;;;;;;;;;5038960;28;20072;-93
2022/06/20 03:58:16;;;;;;;9.30;4.05;;;;;;;;;;5041253;28;20048;-96
2022/06/20 04:00:49;;;;;;;12.68;3.70;;;;;;;;;;5035866;28;20073;-93
2022/06/20 04:03:23;;;;;;;8.73;3.03;;;;;;;;;;5035845;28;20404;-95
2022/06/20 04:05:53;;;;;;;11.75;3.72;;;;;;;;;;5038144;28;20106;-95
2022/06/20 04:10:57;;;;;;;7.63;3.47;;;;;;;;;;5039066;28;20056;-94
2022/06/20 04:11:19;;;;;;;12.80;3.72;;;;;;;;;;5053313;28;20136;-94
2022/06/20 04:13:46;;;;;;;14.10;3.97;;;;;;;;;;5036855;28;20069;-94
2022/06/20 04:16:23;;;;;;;10.80;3.90;;;;;;;;;;5042589;28;20077;-94
2022/06/20 04:19:06;;;;;;;9.52;3.78;;;;;;;;;;5041458;28;20060;-96
2022/06/20 04:21:40;;;;;;;12.45;3.80;;;;;;;;;;5037944;28;20080;-95
2022/06/20 04:24:07;;;;;;;11.90;3.47;;;;;;;;;;5052647;28;20052;-94
2022/06/20 04:26:38;;;;;;;10.23;3.45;;;;;;;;;;5045179;28;20182;-94
2022/06/20 04:29:10;;;;;;;12.15;3.00;;;;;;;;;;5036042;28;20124;-93
2022/06/20 04:31:42;;;;;;;9.57;3.85;;;;;;;;;;5035535;28;20049;-93
2022/06/20 04:34:16;;;;;;;18.70;4.43;;;;;;;;;;5059438;28;20059;-95
2022/06/20 04:36:51;;;;;;;24.15;5.65;;;;;;;;;;5041330;28;20049;-91
2022/06/20 04:39:23;;;;;;;15.82;5.20;;;;;;;;;;5037576;28;20110;-90
2022/06/20 04:42:06;;;;;;;33.30;6.05;;;;;;;;;;5039993;28;20065;-95
2022/06/20 04:44:44;;;;;;;18.92;5.57;;;;;;;;;;5039887;28;20139;-94
2022/06/20 04:47:11;;;;;;;11.75;4.90;;;;;;;;;;5036356;28;20049;-89
2022/06/20 04:49:39;;;;;;;18.50;4.90;;;;;;;;;;5035878;28;20048;-93
2022/06/20 04:52:10;;;;;;;13.55;4.47;;;;;;;;;;5036669;28;20131;-94
2022/06/20 04:54:38;;;;;;;11.60;4.45;;;;;;;;;;5041521;28;20478;-96
2022/06/20 04:57:09;;;;;;;12.07;4.70;;;;;;;;;;5040393;28;20045;-96
2022/06/20 04:59:37;;;;;;;14.63;4.93;;;;;;;;;;5036779;28;20071;-94
2022/06/20 05:02:10;;;;;;;10.05;3.92;;;;;;;;;;5038437;28;20084;-93
2022/06/20 05:04:39;;;;;;;17.10;5.22;;;;;;;;;;5036203;28;20406;-92
2022/06/20 05:07:11;;;;;;;22.50;6.25;;;;;;;;;;5046192;28;20490;-96
2022/06/20 05:09:42;;;;;;;37.83;7.85;;;;;;;;;;5042358;28;20109;-94
2022/06/20 05:12:15;;;;;;;20.35;6.63;;;;;;;;;;5036077;28;20144;-91
2022/06/20 05:14:52;;;;;;;17.48;7.50;;;;;;;;;;5035788;28;20044;-93
2022/06/20 05:17:23;;;;;;;18.88;7.32;;;;;;;;;;5035922;28;20094;-94
2022/06/20 05:19:53;;;;;;;23.27;8.68;;;;;;;;;;5040062;28;20040;-93
2022/06/20 05:22:23;;;;;;;24.98;9.65;;;;;;;;;;5038628;28;20052;-92
2022/06/20 05:24:55;;;;;;;21.90;9.23;;;;;;;;;;5036124;28;20115;-94
2022/06/20 05:27:31;;;;;;;20.75;9.27;;;;;;;;;;5043456;28;20131;-94
2022/06/20 05:30:00;;;;;;;17.70;8.63;;;;;;;;;;5042390;28;20056;-95
2022/06/20 05:32:36;;;;;;;16.40;7.90;;;;;;;;;;5042371;28;20064;-96
2022/06/20 05:35:07;;;;;;;19.55;7.50;;;;;;;;;;5040963;28;20511;-94
2022/06/20 05:37:48;;;;;;;21.15;7.57;;;;;;;;;;5040349;28;20049;-96
2022/06/20 05:40:54;;;;;;;11.63;7.15;;;;;;;;;;5041677;28;20069;-95
2022/06/20 05:43:28;;;;;;;16.67;6.60;;;;;;;;;;5043617;28;20128;-95
2022/06/20 05:46:02;;;;;;;12.60;6.28;;;;;;;;;;5040381;28;20060;-94
2022/06/20 05:48:35;;;;;;;17.42;5.95;;;;;;;;;;5042957;28;20425;-95
2022/06/20 05:51:04;;;;;;;16.27;5.55;;;;;;;;;;5047225;28;20053;-95
2022/06/20 05:53:48;;;;;;;15.45;5.15;;;;;;;;;;5054949;28;20051;-96
2022/06/20 05:56:36;;;;;;;10.18;5.40;;;;;;;;;;5046467;28;20076;-96
2022/06/20 05:59:05;;;;;;;10.48;4.50;;;;;;;;;;5047705;28;20390;-96
2022/06/20 06:01:33;;;;;;;10.18;4.80;;;;;;;;;;5041703;28;20057;-94
2022/06/20 06:04:19;;;;;;;11.00;4.25;;;;;;;;;;5037152;28;20042;-96
2022/06/20 06:06:50;;;;;;;12.32;4.32;;;;;;;;;;5038799;28;20053;-93
2022/06/20 06:09:26;;;;;;;17.98;5.15;;;;;;;;;;5043693;28;20037;-96
2022/06/20 06:12:02;;;;;;;13.55;4.68;;;;;;;;;;5041998;28;20049;-95
2022/06/20 06:14:29;;;;;;;9.20;4.90;;;;;;;;;;5036706;28;20123;-94
2022/06/20 06:16:59;;;;;;;11.52;4.43;;;;;;;;;;5036054;28;20050;-95
2022/06/20 06:19:29;;;;;;;10.48;5.35;;;;;;;;;;5034977;28;20156;-94
2022/06/20 06:21:59;;;;;;;8.98;4.50;;;;;;;;;;5035716;28;20140;-95
2022/06/20 06:24:33;;;;;;;9.07;4.50;;;;;;;;;;5034667;28;20083;-94
2022/06/20 06:27:07;;;;;;;14.45;5.28;;;;;;;;;;5041115;28;20064;-94
2022/06/20 06:30:00;;;;;;;14.73;6.22;;;;;;;;;;5043115;28;20049;-96
2022/06/20 06:32:42;;;;;;;21.05;6.53;;;;;;;;;;5035988;28;20386;-95
2022/06/20 06:35:09;;;;;;;17.75;7.07;;;;;;;;;;5034255;28;20322;-94
2022/06/20 06:37:50;;;;;;;15.00;6.35;;;;;;;;;;5037183;28;20073;-94
2022/06/20 06:40:30;;;;;;;10.23;6.47;;;;;;;;;;5040037;28;20141;-94
2022/06/20 06:43:07;;;;;;;12.02;6.68;;;;;;;;;;5040046;28;20053;-93
2022/06/20 06:45:35;;;;;;;12.80;5.35;;;;;;;;;;5034387;28;20132;-94
2022/06/20 06:48:10;;;;;;;11.65;5.43;;;;;;;;;;5037485;28;20069;-95
2022/06/20 06:50:48;;;;;;;11.15;5.30;;;;;;;;;;5034719;28;20045;-95
2022/06/20 06:53:34;;;;;;;15.15;5.75;;;;;;;;;;5038383;28;20139;-96
2022/06/20 06:56:07;;;;;;;15.32;6.68;;;;;;;;;;5037830;28;20079;-96
2022/06/20 06:58:44;;;;;;;17.65;7.25;;;;;;;;;;5035127;28;20065;-95
2022/06/20 07:01:16;;;;;;;13.60;6.60;;;;;;;;;;5034268;28;20136;-94
2022/06/20 07:03:47;;;;;;;17.63;7.60;;;;;;;;;;5034522;28;20065;-92
2022/06/20 07:06:17;;;;;;;16.08;7.03;;;;;;;;;;5034029;28;20049;-93
2022/06/20 07:09:03;;;;;;;13.77;6.55;;;;;;;;;;5033917;28;20061;-94
2022/06/20 07:11:32;;;;;;;17.15;6.90;;;;;;;;;;5037642;28;20319;-94
2022/06/20 07:14:10;;;;;;;14.75;6.20;;;;;;;;;;5034761;28;20092;-95
2022/06/20 07:16:40;;;;;;;20.20;7.55;;;;;;;;;;5034369;28;20566;-94
2022/06/20 07:19:08;;;;;;;17.55;7.50;;;;;;;;;;5039602;28;20060;-93
2022/06/20 07:21:38;;;;;;;15.88;7.28;;;;;;;;;;5042901;28;20076;-94
2022/06/20 07:24:07;;;;;;;12.88;6.65;;;;;;;;;;5034878;28;20274;-93
2022/06/20 07:26:51;;;;;;;18.23;7.25;;;;;;;;;;5033757;28;20081;-91
2022/06/20 07:29:31;;;;;;;12.85;6.38;;;;;;;;;;5034753;28;20141;-94
2022/06/20 07:32:07;;;;;;;15.13;6.75;;;;;;;;;;5033646;28;20046;-93
2022/06/20 07:34:51;;;;;;;17.35;6.82;;;;;;;;;;5034076;28;20072;-94
2022/06/20 07:37:36;;;;;;;14.00;7.68;;;;;;;;;;5034542;28;20080;-94
2022/06/20 07:40:07;;;;;;;11.25;6.78;;;;;;;;;;5033881;28;20275;-93
2022/06/20 07:42:55;;;;;;;13.75;7.30;;;;;;;;;;5034787;28;20053;-96
2022/06/20 07:45:42;;;;;;;14.25;7.60;;;;;;;;;;5020460;28;20132;-95
2022/06/20 07:48:31;;;;;;;18.45;7.32;;;;;;;;;;5036726;28;20132;-95
2022/06/20 07:50:58;;;;;;;14.55;7.47;;;;;;;;;;5041341;28;20076;-95
2022/06/20 07:53:39;;;;;;;14.90;6.70;;;;;;;;;;5038874;28;20136;-96
2022/06/20 07:56:09;;;;;;;16.48;7.07;;;;;;;;;;5035505;28;20076;-92
2022/06/20 07:58:38;;;;;;;14.90;6.15;;;;;;;;;;5033265;28;20071;-93
2022/06/20 08:01:10;;;;;;;14.27;6.95;;;;;;;;;;5034123;28;20565;-96
2022/06/20 08:03:57;;;;;;;11.75;6.28;;;;;;;;;;5038593;28;20053;-96
2022/06/20 08:06:50;;;;;;;16.50;6.75;;;;;;;;;;5039807;28;20076;-95
2022/06/20 08:09:27;;;;;;;11.50;6.32;;;;;;;;;;5035318;28;20069;-94
2022/06/20 08:12:06;;;;;;;10.35;6.93;;;;;;;;;;5033018;28;20390;-93
2022/06/20 08:14:55;;;;;;;15.40;6.63;;;;;;;;;;5032806;28;20140;-95
2022/06/20 08:17:23;;;;;;;11.73;6.88;;;;;;;;;;5032831;28;20502;-94
2022/06/20 08:19:51;;;;;;;15.27;7.10;;;;;;;;;;5033181;28;20107;-96
2022/06/20 08:22:34;;;;;;;19.48;8.50;;;;;;;;;;5035573;28;20057;-94
2022/06/20 08:25:22;;;;;;;14.30;6.90;;;;;;;;;;5033547;28;20439;-94
2022/06/20 08:28:03;;;;;;;18.13;7.45;;;;;;;;;;5036301;28;20144;-96
2022/06/20 08:30:49;;;;;;;13.68;6.90;;;;;;;;;;5035763;28;20045;-95
2022/06/20 08:33:35;;;;;;;12.43;6.97;;;;;;;;;;5040561;28;20053;-96
2022/06/20 08:36:14;;;;;;;10.27;6.63;;;;;;;;;;5039057;28;20045;-95
2022/06/20 08:39:09;;;;;;;15.93;6.95;;;;;;;;;;5034857;28;20053;-96
2022/06/20 08:41:54;;;;;;;13.23;6.97;;;;;;;;;;5036969;28;20045;-95
2022/06/20 08:44:55;;;;;;;14.23;6.82;;;;;;;;;;5034144;28;20077;-96
2022/06/20 08:47:24;;;;;;;13.75;6.47;;;;;;;;;;5044944;28;20053;-94
2022/06/20 08:50:11;;;;;;;12.98;6.30;;;;;;;;;;5034371;28;20046;-91
2022/06/20 08:53:01;;;;;;;16.30;7.55;;;;;;;;;;5035508;28;20524;-94
2022/06/20 08:55:36;;;;;;;15.00;7.70;;;;;;;;;;5032773;28;20084;-96
2022/06/20 08:58:12;;;;;;;9.27;5.32;;;;;;;;;;5034467;28;20054;-93
2022/06/20 09:01:00;;;;;;;13.55;5.35;;;;;;;;;;5038296;28;20444;-92
2022/06/20 09:03:43;;;;;;;14.27;5.95;;;;;;;;;;5041127;28;20068;-95
2022/06/20 09:06:24;;;;;;;11.63;5.47;;;;;;;;;;5040654;28;20072;-94
2022/06/20 09:08:52;;;;;;;13.10;6.13;;;;;;;;;;5040537;28;20049;-96
2022/06/20 09:11:38;;;;;;;9.27;6.28;;;;;;;;;;5041518;28;20167;-95
2022/06/20 09:14:08;;;;;;;12.63;6.53;;;;;;;;;;5041279;28;20135;-96
2022/06/20 09:17:00;;;;;;;11.40;6.68;;;;;;;;;;5039746;28;20068;-96
2022/06/20 09:19:47;;;;;;;11.05;6.85;;;;;;;;;;5029785;28;20151;-96
2022/06/20 09:22:28;;;;;;;14.82;6.40;;;;;;;;;;5043800;28;20073;-96
2022/06/20 09:25:07;;;;;;;11.82;6.65;;;;;;;;;;5042892;28;20083;-91
2022/06/20 09:27:38;;;;;;;14.13;6.43;;;;;;;;;;5040527;28;20068;-96
2022/06/20 09:30:05;;;;;;;13.82;6.70;;;;;;;;;;5039782;28;20110;-93
2022/06/20 09:32:47;;;;;;;8.25;5.93;;;;;;;;;;5040608;28;20056;-90
2022/06/20 09:35:17;;;;;;;11.80;6.78;;;;;;;;;;5039037;28;20493;-93
2022/06/20 09:38:04;;;;;;;11.57;6.72;;;;;;;;;;5039241;28;20140;-92
2022/06/20 09:40:44;;;;;;;12.10;6.82;;;;;;;;;;5042033;28;20053;-91
2022/06/20 09:43:20;;;;;;;9.88;5.95;;;;;;;;;;5056781;28;20049;-92
2022/06/20 09:46:14;;;;;;;10.90;6.38;;;;;;;;;;5039987;28;20102;-91
2022/06/20 09:48:50;;;;;;;9.90;5.93;;;;;;;;;;5042341;28;20059;-96
2022/06/20 09:51:19;;;;;;;10.45;6.40;;;;;;;;;;5044211;28;20053;-93
2022/06/20 09:53:54;;;;;;;10.20;5.30;;;;;;;;;;5038831;28;20052;-92
2022/06/20 09:56:31;;;;;;;11.50;5.93;;;;;;;;;;5041308;28;20048;-91
2022/06/20 09:59:09;;;;;;;17.55;6.25;;;;;;;;;;5037890;23;20125;-84
2022/06/20 10:01:44;;;;;;;9.77;5.50;;;;;;;;;;5025314;28;20507;-82
2022/06/20 10:04:30;;;;;;;14.77;6.63;;;;;;;;;;5023861;28;20137;-84
2022/06/20 10:07:17;;;;;;;13.57;6.40;;;;;;;;;;5003688;28;20064;-84
2022/06/20 10:09:53;;;;;;;10.02;6.47;;;;;;;;;;5000127;28;20108;-81
2022/06/20 10:12:40;;;;;;;12.75;6.45;;;;;;;;;;4999802;28;20085;-85
2022/06/20 10:15:15;;;;;;;9.88;5.57;;;;;;;;;;5000838;28;20077;-83
2022/06/20 10:18:00;;;;;;;9.88;5.43;;;;;;;;;;5001297;28;20046;-84
2022/06/20 10:20:40;;;;;;;14.32;5.93;;;;;;;;;;5002111;28;20057;-84
2022/06/20 10:23:31;;;;;;;9.20;4.97;;;;;;;;;;5001228;28;20459;-84
2022/06/20 10:26:19;;;;;;;11.23;5.30;;;;;;;;;;5001257;28;20081;-85
2022/06/20 10:28:48;;;;;;;14.95;6.35;;;;;;;;;;5002845;28;20050;-85
2022/06/20 10:31:26;;;;;;;9.88;5.30;;;;;;;;;;5004411;28;20054;-83
2022/06/20 10:33:57;;;;;;;9.50;5.57;;;;;;;;;;5004014;28;20511;-81
2022/06/20 10:36:34;;;;;;;13.48;6.30;;;;;;;;;;5002592;28;20504;-84
2022/06/20 10:39:07;;;;;;;10.27;5.55;;;;;;;;;;5004376;28;20074;-85
2022/06/20 10:41:34;;;;;;;;;;;;;;;;;;5008303;28;20101;-83
2022/06/20 10:44:11;;;;;;;15.43;5.45;;;;;;;;;;5007205;28;19929;-84
2022/06/20 10:46:41;;;;;;;6.03;4.82;;;;;;;;;;5007705;28;20117;-83
2022/06/20 10:49:23;;;;;;;12.10;5.53;;;;;;;;;;5001517;28;20058;-84
2022/06/20 10:51:54;;;;;;;10.68;4.70;;;;;;;;;;5001632;28;20050;-86
2022/06/20 10:54:42;;;;;;;9.18;5.25;;;;;;;;;;4999885;28;20469;-83
2022/06/20 10:57:28;;;;;;;19.73;6.07;;;;;;;;;;4999685;28;20408;-82
2022/06/20 11:00:10;;;;;;;16.55;4.97;;;;;;;;;;5002108;28;20074;-85
2022/06/20 11:02:50;;;;;;;9.63;5.10;;;;;;;;;;5002294;28;20496;-83
2022/06/20 11:05:20;;;;;;;12.30;4.63;;;;;;;;;;5000174;28;20479;-81
2022/06/20 11:07:58;;;;;;;7.65;5.10;;;;;;;;;;5000659;28;20379;-85
2022/06/20 11:10:50;;;;;;;5.47;4.63;;;;;;;;;;5000858;28;20050;-83
2022/06/20 11:13:18;;;;;;;8.93;5.72;;;;;;;;;;5000783;28;20055;-84
2022/06/20 11:15:58;;;;;;;11.52;4.93;;;;;;;;;;4999086;28;20089;-82
2022/06/20 11:18:38;;;;;;;8.73;4.60;;;;;;;;;;5001086;28;20047;-82
2022/06/20 11:21:21;;;;;;;4.78;3.42;;;;;;;;;;4999961;28;20133;-83
2022/06/20 11:24:07;;;;;;;9.73;3.80;;;;;;;;;;4999265;28;20046;-84
2022/06/20 11:26:42;;;;;;;3.55;3.10;;;;;;;;;;4999447;28;20057;-81
2022/06/20 11:29:20;;;;;;;3.28;2.97;;;;;;;;;;4998927;28;20069;-84
2022/06/20 11:31:47;;;;;;;3.65;2.67;;;;;;;;;;4999323;28;20054;-85
2022/06/20 11:34:30;;;;;;;4.40;2.80;;;;;;;;;;5000652;28;20061;-83
2022/06/20 11:37:03;;;;;;;2.83;2.00;;;;;;;;;;4998495;28;20082;-83
2022/06/20 11:39:33;;;;;;;3.40;2.03;;;;;;;;;;4998327;28;20066;-83
2022/06/20 11:42:21;;;;;;;2.25;2.05;;;;;;;;;;4998372;28;20081;-84
2022/06/20 11:44:54;;;;;;;2.20;1.70;;;;;;;;;;4998911;28;20042;-82
2022/06/20 11:47:21;;;;;;;2.15;1.25;;;;;;;;;;5002256;28;20050;-84
2022/06/20 11:50:02;;;;;;;6.30;1.30;;;;;;;;;;4999707;28;20504;-85
2022/06/20 11:52:30;;;;;;;2.97;0.90;;;;;;;;;;4998020;28;20423;-85
2022/06/20 11:55:09;;;;;;;1.42;1.00;;;;;;;;;;5003235;28;20081;-84
2022/06/20 11:57:46;;;;;;;4.85;1.00;;;;;;;;;;5003228;28;20508;-83
2022/06/20 12:00:26;;;;;;;4.05;0.85;;;;;;;;;;5002726;28;20142;-85
2022/06/20 12:03:04;;;;;;;2.10;0.60;;;;;;;;;;5002957;28;20054;-85
2022/06/20 12:05:31;;;;;;;2.50;0.57;;;;;;;;;;5002735;28;20054;-85
2022/06/20 12:08:21;;;;;;;0.85;0.40;;;;;;;;;;5005179;28;20524;-85
2022/06/20 12:10:56;;;;;;;0.85;0.52;;;;;;;;;;5008069;28;20105;-84
2022/06/20 12:13:26;;;;;;;1.25;0.50;;;;;;;;;;5001193;28;20050;-83
2022/06/20 12:16:02;;;;;;;0.60;0.30;;;;;;;;;;4997982;28;20086;-78
2022/06/20 12:18:33;;;;;;;1.85;0.60;;;;;;;;;;4995544;28;20065;-82
2022/06/20 12:23:53;;;;;;;0.45;0.40;;;;;;;;;;4997756;28;20043;-79
2022/06/20 12:26:29;;;;;;;1.85;0.40;;;;;;;;;;4996129;28;20074;-81
2022/06/20 12:28:57;;;;;;;1.17;0.32;;;;;;;;;;4995969;28;20476;-82
2022/06/20 12:31:26;;;;;;;2.88;0.70;;;;;;;;;;4997199;28;20126;-81
2022/06/20 12:33:59;;;;;;;1.20;0.60;;;;;;;;;;4996351;28;20060;-82
2022/06/20 12:36:43;;;;;;;2.65;0.82;;;;;;;;;;4996567;28;20080;-80
2022/06/20 12:39:32;;;;;;;1.02;0.95;;;;;;;;;;4998294;28;20500;-79
2022/06/20 12:42:11;;;;;;;2.15;1.15;;;;;;;;;;4997506;28;20050;-80
2022/06/20 12:44:50;;;;;;;0.73;0.55;;;;;;;;;;4996359;28;20050;-80
2022/06/20 12:47:24;;;;;;;2.58;0.60;;;;;;;;;;4996550;28;20101;-81
2022/06/20 12:50:06;;;;;;;0.73;0.73;;;;;;;;;;4997625;28;20089;-81
2022/06/20 12:52:33;;;;;;;2.95;0.55;;;;;;;;;;5001496;28;20046;-80
2022/06/20 12:55:08;;;;;;;1.00;0.70;;;;;;;;;;5001342;28;20125;-83
2022/06/20 12:58:03;;;;;;;0.50;0.50;;;;;;;;;;5002554;28;20069;-80
2022/06/20 13:00:36;;;;;;;3.88;0.70;;;;;;;;;;5001589;28;20057;-80
2022/06/20 13:03:30;;;;;;;8.68;0.80;;;;;;;;;;5002670;28;20050;-84
2022/06/20 13:06:19;;;;;;;1.20;0.60;;;;;;;;;;4988680;28;20114;-84
2022/06/20 13:08:52;;;;;;;1.40;0.50;;;;;;;;;;5001383;28;20484;-83
2022/06/20 13:11:32;;;;;;;2.17;0.85;;;;;;;;;;5002497;28;20096;-84
2022/06/20 13:14:02;;;;;;;0.95;0.40;;;;;;;;;;5001954;28;20078;-81
2022/06/20 13:16:35;;;;;;;2.28;0.60;;;;;;;;;;5001294;28;20058;-82
2022/06/20 13:19:03;;;;;;;;;;;;;;;;;;5002028;28;20054;-81
2022/06/20 13:21:39;;;;;;;5.53;0.75;;;;;;;;;;5003206;28;19922;-83
2022/06/20 13:24:25;;;;;;;0.43;0.43;;;;;;;;;;5003326;28;20069;-82
2022/06/20 13:27:10;;;;;;;0.50;0.50;;;;;;;;;;5007030;28;20047;-82
2022/06/20 13:29:41;;;;;;;3.38;0.68;;;;;;;;;;5001352;28;20137;-84
2022/06/20 13:32:13;;;;;;;3.10;0.50;;;;;;;;;;5003027;28;20070;-83
2022/06/20 13:34:46;;;;;;;1.13;0.40;;;;;;;;;;5001564;28;20145;-83
2022/06/20 13:37:23;;;;;;;2.55;0.40;;;;;;;;;;4999301;28;20070;-82
2022/06/20 13:40:04;;;;;;;0.98;0.70;;;;;;;;;;5000462;28;20500;-81
2022/06/20 13:42:33;;;;;;;0.52;0.52;;;;;;;;;;4998676;28;20069;-82
2022/06/20 13:45:22;;;;;;;2.25;0.63;;;;;;;;;;4998818;28;20451;-82
2022/06/20 13:48:02;;;;;;;1.98;0.73;;;;;;;;;;5000233;28;20472;-82
2022/06/20 13:50:34;;;;;;;0.50;0.50;;;;;;;;;;4997867;28;20408;-83
2022/06/20 13:53:10;;;;;;;2.03;0.63;;;;;;;;;;4998298;28;20071;-83
2022/06/20 13:55:47;;;;;;;0.90;0.70;;;;;;;;;;4997789;28;20408;-82
2022/06/20 13:58:19;;;;;;;3.28;0.68;;;;;;;;;;4997664;28;20055;-81
2022/06/20 14:00:54;;;;;;;0.60;0.60;;;;;;;;;;4997598;28;20463;-83
2022/06/20 14:03:32;;;;;;;1.05;0.57;;;;;;;;;;4997229;28;20050;-82
2022/06/20 14:06:04;;;;;;;2.22;0.68;;;;;;;;;;4997961;28;20463;-82
2022/06/20 14:08:31;;;;;;;0.50;0.50;;;;;;;;;;5000208;28;20050;-83
2022/06/20 14:11:03;;;;;;;4.78;0.98;;;;;;;;;;4998348;28;20050;-82
2022/06/20 14:13:32;;;;;;;0.38;0.30;;;;;;;;;;4998424;28;20149;-83
2022/06/20 14:16:17;;;;;;;1.65;0.50;;;;;;;;;;4997648;28;20093;-82
2022/06/20 14:18:47;;;;;;;0.20;0.10;;;;;;;;;;4998321;28;20049;-83
2022/06/20 14:21:14;;;;;;;6.25;0.50;;;;;;;;;;4998003;28;20066;-82
2022/06/20 14:23:47;;;;;;;0.35;0.30;;;;;;;;;;4997705;28;20409;-82
2022/06/20 14:26:44;;;;;;;20.02;2.67;;;;;;;;;;4998106;28;20057;-82
2022/06/20 14:29:17;;;;;;;38.72;3.58;;;;;;;;;;4982031;28;20519;-82
2022/06/20 14:32:05;;;;;;;7.97;1.10;;;;;;;;;;4997545;28;20567;-84
2022/06/20 14:34:39;;;;;;;1.13;0.10;;;;;;;;;;4997980;28;20759;-84
2022/06/20 14:37:13;;;;;;;1.30;0.20;;;;;;;;;;4997792;28;20054;-83
2022/06/20 14:39:43;;;;;;;1.83;0.30;;;;;;;;;;4999344;28;20085;-82
2022/06/20 14:42:13;;;;;;;1.85;0.15;;;;;;;;;;4998689;28;20080;-85
2022/06/20 14:44:44;;;;;;;0.20;0.20;;;;;;;;;;4999718;28;20109;-83
2022/06/20 14:47:31;;;;;;;5.65;0.40;;;;;;;;;;4998730;28;20046;-84
2022/06/20 14:50:06;;;;;;;0.70;0.38;;;;;;;;;;4997871;28;20053;-84
2022/06/20 14:52:36;;;;;;;0.70;0.25;;;;;;;;;;4998833;28;20133;-85
2022/06/20 14:55:22;;;;;;;0.85;0.20;;;;;;;;;;4997259;28;20078;-82
2022/06/20 14:57:55;;;;;;;0.10;0.10;;;;;;;;;;4996887;28;20140;-82
2022/06/20 15:00:41;;;;;;;0.40;0.20;;;;;;;;;;4995570;28;20054;-82
2022/06/20 15:03:19;;;;;;;0.70;0.20;;;;;;;;;;4996477;28;20140;-83
2022/06/20 15:05:46;;;;;;;4.45;0.32;;;;;;;;;;4995679;28;20054;-83
2022/06/20 15:08:22;;;;;;;5.13;0.60;;;;;;;;;;4997713;28;20104;-83
2022/06/20 15:10:52;;;;;;;4.07;0.60;;;;;;;;;;4996322;28;20074;-83
2022/06/20 15:13:19;;;;;;;1.67;0.28;;;;;;;;;;4996851;28;20050;-83
2022/06/20 15:15:48;;;;;;;0.95;0.40;;;;;;;;;;4995505;28;20459;-83
2022/06/20 15:18:18;;;;;;;7.32;0.32;;;;;;;;;;4996608;28;20054;-83
2022/06/20 15:20:53;;;;;;;4.38;0.50;;;;;;;;;;4995792;28;20054;-82
2022/06/20 15:23:42;;;;;;;3.03;0.47;;;;;;;;;;4995400;28;20054;-82
2022/06/20 15:26:27;;;;;;;2.60;0.20;;;;;;;;;;4996908;28;20050;-81
2022/06/20 15:29:13;;;;;;;0.32;0.20;;;;;;;;;;4996457;28;20050;-81
2022/06/20 15:31:43;;;;;;;0.80;0.40;;;;;;;;;;4995441;28;20129;-81
2022/06/20 15:34:29;;;;;;;0.70;0.30;;;;;;;;;;4995082;28;20085;-81